sensor_id;sensor_type;location;lat;lon;timestamp;temperature;humidity
22290;DHT22;11313;50.116;8.424;2023-10-31T00:02:21;25.00;55.10
22290;DHT22;11313;50.116;8.424;2023-10-31T00:04:47;25.00;55.10
22290;DHT22;11313;50.116;8.424;2023-10-31T00:07:12;25.00;55.20
22290;DHT22;11313;50.116;8.424;2023-10-31T00:09:37;24.90;55.10
22290;DHT22;11313;50.116;8.424;2023-10-31T00:12:04;25.00;55.20
22290;DHT22;11313;50.116;8.424;2023-10-31T00:14:30;25.00;55.10
22290;DHT22;11313;50.116;8.424;2023-10-31T00:16:55;25.00;55.20
22290;DHT22;11313;50.116;8.424;2023-10-31T00:19:21;25.00;55.20
22290;DHT22;11313;50.116;8.424;2023-10-31T00:21:46;25.00;55.20
22290;DHT22;11313;50.116;8.424;2023-10-31T00:24:12;25.00;55.10
22290;DHT22;11313;50.116;8.424;2023-10-31T00:26:38;25.00;55.20
22290;DHT22;11313;50.116;8.424;2023-10-31T00:29:03;24.90;55.10
22290;DHT22;11313;50.116;8.424;2023-10-31T00:31:28;25.00;55.20
22290;DHT22;11313;50.116;8.424;2023-10-31T00:33:54;25.00;55.20
22290;DHT22;11313;50.116;8.424;2023-10-31T00:36:21;25.00;55.20
22290;DHT22;11313;50.116;8.424;2023-10-31T00:38:46;25.00;55.20
22290;DHT22;11313;50.116;8.424;2023-10-31T00:41:12;25.00;55.20
22290;DHT22;11313;50.116;8.424;2023-10-31T00:43:37;25.00;55.20
22290;DHT22;11313;50.116;8.424;2023-10-31T00:46:03;25.00;55.20
22290;DHT22;11313;50.116;8.424;2023-10-31T00:48:30;25.00;55.20
22290;DHT22;11313;50.116;8.424;2023-10-31T00:51:04;25.00;55.20
22290;DHT22;11313;50.116;8.424;2023-10-31T00:53:30;25.00;55.20
22290;DHT22;11313;50.116;8.424;2023-10-31T00:55:55;25.00;55.20
22290;DHT22;11313;50.116;8.424;2023-10-31T00:58:21;25.00;55.20
22290;DHT22;11313;50.116;8.424;2023-10-31T01:00:46;25.00;55.20
22290;DHT22;11313;50.116;8.424;2023-10-31T01:03:12;25.00;55.20
22290;DHT22;11313;50.116;8.424;2023-10-31T01:05:37;25.00;55.20
22290;DHT22;11313;50.116;8.424;2023-10-31T01:08:03;25.00;55.20
22290;DHT22;11313;50.116;8.424;2023-10-31T01:10:29;24.90;55.20
22290;DHT22;11313;50.116;8.424;2023-10-31T01:12:54;24.90;55.20
22290;DHT22;11313;50.116;8.424;2023-10-31T01:15:20;24.90;55.20
22290;DHT22;11313;50.116;8.424;2023-10-31T01:17:45;24.90;55.10
22290;DHT22;11313;50.116;8.424;2023-10-31T01:20:11;24.90;55.20
22290;DHT22;11313;50.116;8.424;2023-10-31T01:22:37;24.90;55.20
22290;DHT22;11313;50.116;8.424;2023-10-31T01:25:03;24.90;55.10
22290;DHT22;11313;50.116;8.424;2023-10-31T01:27:28;24.90;55.20
22290;DHT22;11313;50.116;8.424;2023-10-31T01:29:54;24.90;55.20
22290;DHT22;11313;50.116;8.424;2023-10-31T01:32:19;24.90;55.80
22290;DHT22;11313;50.116;8.424;2023-10-31T01:34:45;24.90;55.20
22290;DHT22;11313;50.116;8.424;2023-10-31T01:37:10;24.90;55.20
22290;DHT22;11313;50.116;8.424;2023-10-31T01:39:36;24.90;55.20
22290;DHT22;11313;50.116;8.424;2023-10-31T01:42:02;24.90;55.20
22290;DHT22;11313;50.116;8.424;2023-10-31T01:44:27;24.90;55.20
22290;DHT22;11313;50.116;8.424;2023-10-31T01:46:53;24.90;55.20
22290;DHT22;11313;50.116;8.424;2023-10-31T01:49:19;24.90;55.20
22290;DHT22;11313;50.116;8.424;2023-10-31T01:51:45;24.90;55.20
22290;DHT22;11313;50.116;8.424;2023-10-31T01:54:12;24.90;55.20
22290;DHT22;11313;50.116;8.424;2023-10-31T01:56:38;24.90;55.20
22290;DHT22;11313;50.116;8.424;2023-10-31T01:59:05;24.90;55.20
22290;DHT22;11313;50.116;8.424;2023-10-31T02:01:32;24.90;55.20
22290;DHT22;11313;50.116;8.424;2023-10-31T02:03:59;24.90;55.20
22290;DHT22;11313;50.116;8.424;2023-10-31T02:06:27;24.90;55.20
22290;DHT22;11313;50.116;8.424;2023-10-31T02:08:55;24.90;55.20
22290;DHT22;11313;50.116;8.424;2023-10-31T02:11:20;24.90;55.20
22290;DHT22;11313;50.116;8.424;2023-10-31T02:13:46;24.90;55.20
22290;DHT22;11313;50.116;8.424;2023-10-31T02:16:11;24.90;55.20
22290;DHT22;11313;50.116;8.424;2023-10-31T02:18:37;24.90;55.30
22290;DHT22;11313;50.116;8.424;2023-10-31T02:21:03;24.90;55.30
22290;DHT22;11313;50.116;8.424;2023-10-31T02:23:28;24.90;55.30
22290;DHT22;11313;50.116;8.424;2023-10-31T02:25:54;24.90;55.30
22290;DHT22;11313;50.116;8.424;2023-10-31T02:28:19;24.90;55.30
22290;DHT22;11313;50.116;8.424;2023-10-31T02:30:45;24.90;55.30
22290;DHT22;11313;50.116;8.424;2023-10-31T02:33:10;24.90;55.30
22290;DHT22;11313;50.116;8.424;2023-10-31T02:35:36;24.90;55.30
22290;DHT22;11313;50.116;8.424;2023-10-31T02:38:02;24.90;55.30
22290;DHT22;11313;50.116;8.424;2023-10-31T02:40:27;24.90;55.20
22290;DHT22;11313;50.116;8.424;2023-10-31T02:42:53;24.90;55.20
22290;DHT22;11313;50.116;8.424;2023-10-31T02:45:18;24.90;55.20
22290;DHT22;11313;50.116;8.424;2023-10-31T02:47:44;24.90;55.20
22290;DHT22;11313;50.116;8.424;2023-10-31T02:50:09;24.90;55.20
22290;DHT22;11313;50.116;8.424;2023-10-31T02:52:35;24.90;55.30
22290;DHT22;11313;50.116;8.424;2023-10-31T02:55:01;24.90;55.20
22290;DHT22;11313;50.116;8.424;2023-10-31T02:57:27;24.90;55.20
22290;DHT22;11313;50.116;8.424;2023-10-31T02:59:53;24.90;55.20
22290;DHT22;11313;50.116;8.424;2023-10-31T03:02:18;24.90;55.20
22290;DHT22;11313;50.116;8.424;2023-10-31T03:04:44;24.90;55.20
22290;DHT22;11313;50.116;8.424;2023-10-31T03:07:09;24.90;55.20
22290;DHT22;11313;50.116;8.424;2023-10-31T03:09:35;24.90;55.10
22290;DHT22;11313;50.116;8.424;2023-10-31T03:12:00;24.90;55.10
22290;DHT22;11313;50.116;8.424;2023-10-31T03:14:26;24.90;55.10
22290;DHT22;11313;50.116;8.424;2023-10-31T03:16:51;25.00;55.20
22290;DHT22;11313;50.116;8.424;2023-10-31T03:19:17;25.00;55.20
22290;DHT22;11313;50.116;8.424;2023-10-31T03:21:42;25.00;55.20
22290;DHT22;11313;50.116;8.424;2023-10-31T03:24:08;25.00;55.20
22290;DHT22;11313;50.116;8.424;2023-10-31T03:26:33;25.00;55.20
22290;DHT22;11313;50.116;8.424;2023-10-31T03:28:59;25.00;55.10
22290;DHT22;11313;50.116;8.424;2023-10-31T03:31:25;25.00;55.80
22290;DHT22;11313;50.116;8.424;2023-10-31T03:33:51;25.00;55.10
22290;DHT22;11313;50.116;8.424;2023-10-31T03:36:17;25.00;55.10
22290;DHT22;11313;50.116;8.424;2023-10-31T03:38:42;25.00;55.10
22290;DHT22;11313;50.116;8.424;2023-10-31T03:41:08;25.00;55.70
22290;DHT22;11313;50.116;8.424;2023-10-31T03:43:34;25.00;55.10
22290;DHT22;11313;50.116;8.424;2023-10-31T03:45:59;25.00;55.00
22290;DHT22;11313;50.116;8.424;2023-10-31T03:48:25;25.00;55.00
22290;DHT22;11313;50.116;8.424;2023-10-31T03:50:51;25.10;55.00
22290;DHT22;11313;50.116;8.424;2023-10-31T03:53:16;25.10;55.00
22290;DHT22;11313;50.116;8.424;2023-10-31T03:55:42;25.10;55.00
22290;DHT22;11313;50.116;8.424;2023-10-31T03:58:07;25.10;55.00
22290;DHT22;11313;50.116;8.424;2023-10-31T04:00:33;25.10;55.00
22290;DHT22;11313;50.116;8.424;2023-10-31T04:02:58;25.10;55.00
22290;DHT22;11313;50.116;8.424;2023-10-31T04:05:24;25.00;55.00
22290;DHT22;11313;50.116;8.424;2023-10-31T04:07:49;25.10;55.10
22290;DHT22;11313;50.116;8.424;2023-10-31T04:10:16;25.10;55.10
22290;DHT22;11313;50.116;8.424;2023-10-31T04:12:41;25.10;55.00
22290;DHT22;11313;50.116;8.424;2023-10-31T04:15:08;25.10;55.00
22290;DHT22;11313;50.116;8.424;2023-10-31T04:17:33;25.10;55.00
22290;DHT22;11313;50.116;8.424;2023-10-31T04:19:59;25.10;55.00
22290;DHT22;11313;50.116;8.424;2023-10-31T04:22:24;25.10;55.00
22290;DHT22;11313;50.116;8.424;2023-10-31T04:24:50;25.10;55.00
22290;DHT22;11313;50.116;8.424;2023-10-31T04:27:15;25.10;55.00
22290;DHT22;11313;50.116;8.424;2023-10-31T04:29:41;25.10;55.00
22290;DHT22;11313;50.116;8.424;2023-10-31T04:32:06;25.10;55.00
22290;DHT22;11313;50.116;8.424;2023-10-31T04:34:32;25.10;55.00
22290;DHT22;11313;50.116;8.424;2023-10-31T04:36:58;25.10;55.00
22290;DHT22;11313;50.116;8.424;2023-10-31T04:39:24;25.10;55.00
22290;DHT22;11313;50.116;8.424;2023-10-31T04:41:49;25.10;55.00
22290;DHT22;11313;50.116;8.424;2023-10-31T04:44:15;25.10;55.00
22290;DHT22;11313;50.116;8.424;2023-10-31T04:46:42;25.10;55.00
22290;DHT22;11313;50.116;8.424;2023-10-31T04:49:07;25.10;55.00
22290;DHT22;11313;50.116;8.424;2023-10-31T04:51:36;25.10;55.00
22290;DHT22;11313;50.116;8.424;2023-10-31T04:54:02;25.10;55.00
22290;DHT22;11313;50.116;8.424;2023-10-31T04:56:28;25.10;55.00
22290;DHT22;11313;50.116;8.424;2023-10-31T04:58:53;25.00;55.10
22290;DHT22;11313;50.116;8.424;2023-10-31T05:01:19;25.00;55.20
22290;DHT22;11313;50.116;8.424;2023-10-31T05:03:45;25.00;55.20
22290;DHT22;11313;50.116;8.424;2023-10-31T05:06:10;25.10;55.30
22290;DHT22;11313;50.116;8.424;2023-10-31T05:08:36;25.10;55.20
22290;DHT22;11313;50.116;8.424;2023-10-31T05:11:02;25.10;55.20
22290;DHT22;11313;50.116;8.424;2023-10-31T05:13:27;25.10;55.20
22290;DHT22;11313;50.116;8.424;2023-10-31T05:15:53;25.00;55.20
22290;DHT22;11313;50.116;8.424;2023-10-31T05:18:18;25.00;55.20
22290;DHT22;11313;50.116;8.424;2023-10-31T05:20:44;25.00;55.20
22290;DHT22;11313;50.116;8.424;2023-10-31T05:23:10;25.00;55.20
22290;DHT22;11313;50.116;8.424;2023-10-31T05:25:35;25.10;55.20
22290;DHT22;11313;50.116;8.424;2023-10-31T05:28:01;25.00;55.20
22290;DHT22;11313;50.116;8.424;2023-10-31T05:30:27;25.00;55.20
22290;DHT22;11313;50.116;8.424;2023-10-31T05:32:53;25.00;55.10
22290;DHT22;11313;50.116;8.424;2023-10-31T05:35:18;25.00;55.10
22290;DHT22;11313;50.116;8.424;2023-10-31T05:37:45;25.00;55.20
22290;DHT22;11313;50.116;8.424;2023-10-31T05:40:12;25.00;55.10
22290;DHT22;11313;50.116;8.424;2023-10-31T05:42:38;25.00;55.10
22290;DHT22;11313;50.116;8.424;2023-10-31T05:45:04;25.00;55.20
22290;DHT22;11313;50.116;8.424;2023-10-31T05:47:29;25.00;55.10
22290;DHT22;11313;50.116;8.424;2023-10-31T05:49:55;25.00;55.20
22290;DHT22;11313;50.116;8.424;2023-10-31T05:52:20;25.00;55.10
22290;DHT22;11313;50.116;8.424;2023-10-31T05:54:46;25.00;55.10
22290;DHT22;11313;50.116;8.424;2023-10-31T05:57:11;25.00;55.20
22290;DHT22;11313;50.116;8.424;2023-10-31T05:59:37;25.00;55.10
22290;DHT22;11313;50.116;8.424;2023-10-31T06:02:02;25.00;55.10
22290;DHT22;11313;50.116;8.424;2023-10-31T06:04:28;25.00;55.10
22290;DHT22;11313;50.116;8.424;2023-10-31T06:06:53;25.00;55.20
22290;DHT22;11313;50.116;8.424;2023-10-31T06:09:19;25.00;55.20
22290;DHT22;11313;50.116;8.424;2023-10-31T06:11:44;25.00;55.10
22290;DHT22;11313;50.116;8.424;2023-10-31T06:14:10;25.00;55.10
22290;DHT22;11313;50.116;8.424;2023-10-31T06:16:40;25.00;55.10
22290;DHT22;11313;50.116;8.424;2023-10-31T06:19:07;25.00;55.10
22290;DHT22;11313;50.116;8.424;2023-10-31T06:21:32;25.00;55.10
22290;DHT22;11313;50.116;8.424;2023-10-31T06:23:58;25.00;55.10
22290;DHT22;11313;50.116;8.424;2023-10-31T06:26:23;25.00;55.10
22290;DHT22;11313;50.116;8.424;2023-10-31T06:28:49;25.00;55.10
22290;DHT22;11313;50.116;8.424;2023-10-31T06:31:14;25.00;55.10
22290;DHT22;11313;50.116;8.424;2023-10-31T06:33:40;25.00;55.20
22290;DHT22;11313;50.116;8.424;2023-10-31T06:36:06;25.10;55.10
22290;DHT22;11313;50.116;8.424;2023-10-31T06:38:32;25.10;55.10
22290;DHT22;11313;50.116;8.424;2023-10-31T06:40:57;25.10;55.10
22290;DHT22;11313;50.116;8.424;2023-10-31T06:43:23;25.10;55.10
22290;DHT22;11313;50.116;8.424;2023-10-31T06:45:48;25.10;55.10
22290;DHT22;11313;50.116;8.424;2023-10-31T06:48:14;25.10;55.10
22290;DHT22;11313;50.116;8.424;2023-10-31T06:50:39;25.10;55.10
22290;DHT22;11313;50.116;8.424;2023-10-31T06:53:05;25.10;55.10
22290;DHT22;11313;50.116;8.424;2023-10-31T06:55:30;25.10;55.10
22290;DHT22;11313;50.116;8.424;2023-10-31T06:57:56;25.10;55.10
22290;DHT22;11313;50.116;8.424;2023-10-31T07:00:21;25.10;55.00
22290;DHT22;11313;50.116;8.424;2023-10-31T07:02:47;25.10;55.00
22290;DHT22;11313;50.116;8.424;2023-10-31T07:05:13;25.10;55.00
22290;DHT22;11313;50.116;8.424;2023-10-31T07:07:39;25.10;55.00
22290;DHT22;11313;50.116;8.424;2023-10-31T07:10:05;25.10;55.00
22290;DHT22;11313;50.116;8.424;2023-10-31T07:12:31;25.10;54.90
22290;DHT22;11313;50.116;8.424;2023-10-31T07:14:56;25.10;54.90
22290;DHT22;11313;50.116;8.424;2023-10-31T07:17:24;25.10;55.00
22290;DHT22;11313;50.116;8.424;2023-10-31T07:19:49;25.20;55.00
22290;DHT22;11313;50.116;8.424;2023-10-31T07:22:15;25.10;54.90
22290;DHT22;11313;50.116;8.424;2023-10-31T07:24:40;25.20;55.00
22290;DHT22;11313;50.116;8.424;2023-10-31T07:27:06;25.20;55.00
22290;DHT22;11313;50.116;8.424;2023-10-31T07:29:31;25.20;54.90
22290;DHT22;11313;50.116;8.424;2023-10-31T07:31:57;25.20;55.00
22290;DHT22;11313;50.116;8.424;2023-10-31T07:34:22;25.20;55.00
22290;DHT22;11313;50.116;8.424;2023-10-31T07:36:48;25.20;54.90
22290;DHT22;11313;50.116;8.424;2023-10-31T07:39:13;25.20;54.90
22290;DHT22;11313;50.116;8.424;2023-10-31T07:41:39;25.20;54.90
22290;DHT22;11313;50.116;8.424;2023-10-31T07:44:06;25.20;54.90
22290;DHT22;11313;50.116;8.424;2023-10-31T07:46:31;25.20;55.00
22290;DHT22;11313;50.116;8.424;2023-10-31T07:48:57;25.20;54.90
22290;DHT22;11313;50.116;8.424;2023-10-31T07:51:22;25.20;55.00
22290;DHT22;11313;50.116;8.424;2023-10-31T07:53:48;25.20;55.00
22290;DHT22;11313;50.116;8.424;2023-10-31T07:56:17;25.20;55.00
22290;DHT22;11313;50.116;8.424;2023-10-31T07:58:44;25.30;55.00
22290;DHT22;11313;50.116;8.424;2023-10-31T08:01:09;25.30;54.90
22290;DHT22;11313;50.116;8.424;2023-10-31T08:03:36;25.20;54.90
22290;DHT22;11313;50.116;8.424;2023-10-31T08:06:04;25.20;54.90
22290;DHT22;11313;50.116;8.424;2023-10-31T08:08:30;25.20;54.90
22290;DHT22;11313;50.116;8.424;2023-10-31T08:10:56;25.20;54.90
22290;DHT22;11313;50.116;8.424;2023-10-31T08:13:22;25.20;55.20
22290;DHT22;11313;50.116;8.424;2023-10-31T08:15:48;25.20;54.90
22290;DHT22;11313;50.116;8.424;2023-10-31T08:18:13;25.20;54.90
22290;DHT22;11313;50.116;8.424;2023-10-31T08:20:39;25.20;54.90
22290;DHT22;11313;50.116;8.424;2023-10-31T08:23:04;25.30;54.90
22290;DHT22;11313;50.116;8.424;2023-10-31T08:25:30;25.20;54.90
22290;DHT22;11313;50.116;8.424;2023-10-31T08:27:55;25.20;54.90
22290;DHT22;11313;50.116;8.424;2023-10-31T08:30:22;25.20;54.90
22290;DHT22;11313;50.116;8.424;2023-10-31T08:32:47;25.20;54.90
22290;DHT22;11313;50.116;8.424;2023-10-31T08:35:13;25.30;54.90
22290;DHT22;11313;50.116;8.424;2023-10-31T08:37:38;25.30;54.90
22290;DHT22;11313;50.116;8.424;2023-10-31T08:40:04;25.30;54.90
22290;DHT22;11313;50.116;8.424;2023-10-31T08:42:30;25.30;54.90
22290;DHT22;11313;50.116;8.424;2023-10-31T08:44:56;25.30;54.90
22290;DHT22;11313;50.116;8.424;2023-10-31T08:47:21;25.30;54.90
22290;DHT22;11313;50.116;8.424;2023-10-31T08:49:48;25.30;54.90
22290;DHT22;11313;50.116;8.424;2023-10-31T08:52:14;25.30;54.90
22290;DHT22;11313;50.116;8.424;2023-10-31T08:54:39;25.30;54.90
22290;DHT22;11313;50.116;8.424;2023-10-31T08:57:05;25.30;54.90
22290;DHT22;11313;50.116;8.424;2023-10-31T08:59:30;25.30;54.90
22290;DHT22;11313;50.116;8.424;2023-10-31T09:01:56;25.30;54.90
22290;DHT22;11313;50.116;8.424;2023-10-31T09:04:21;25.30;54.90
22290;DHT22;11313;50.116;8.424;2023-10-31T09:06:47;25.30;54.90
22290;DHT22;11313;50.116;8.424;2023-10-31T09:09:13;25.30;54.80
22290;DHT22;11313;50.116;8.424;2023-10-31T09:11:38;25.30;54.80
22290;DHT22;11313;50.116;8.424;2023-10-31T09:14:04;25.30;54.80
22290;DHT22;11313;50.116;8.424;2023-10-31T09:16:30;25.30;54.80
22290;DHT22;11313;50.116;8.424;2023-10-31T09:18:55;25.30;54.80
22290;DHT22;11313;50.116;8.424;2023-10-31T09:21:20;25.30;54.80
22290;DHT22;11313;50.116;8.424;2023-10-31T09:23:47;25.30;54.80
22290;DHT22;11313;50.116;8.424;2023-10-31T09:26:12;25.30;54.80
22290;DHT22;11313;50.116;8.424;2023-10-31T09:28:38;25.30;54.80
22290;DHT22;11313;50.116;8.424;2023-10-31T09:31:04;25.30;54.80
22290;DHT22;11313;50.116;8.424;2023-10-31T09:33:30;25.30;54.80
22290;DHT22;11313;50.116;8.424;2023-10-31T09:35:55;25.30;54.80
22290;DHT22;11313;50.116;8.424;2023-10-31T09:38:21;25.30;54.70
22290;DHT22;11313;50.116;8.424;2023-10-31T09:40:46;25.30;54.80
22290;DHT22;11313;50.116;8.424;2023-10-31T09:43:12;25.30;54.70
22290;DHT22;11313;50.116;8.424;2023-10-31T09:45:37;25.30;54.70
22290;DHT22;11313;50.116;8.424;2023-10-31T09:48:03;25.30;54.70
22290;DHT22;11313;50.116;8.424;2023-10-31T09:50:29;25.30;54.70
22290;DHT22;11313;50.116;8.424;2023-10-31T09:52:56;25.30;54.70
22290;DHT22;11313;50.116;8.424;2023-10-31T09:55:22;25.30;54.70
22290;DHT22;11313;50.116;8.424;2023-10-31T09:57:47;25.30;54.70
22290;DHT22;11313;50.116;8.424;2023-10-31T10:00:13;25.30;54.70
22290;DHT22;11313;50.116;8.424;2023-10-31T10:02:40;25.30;54.70
22290;DHT22;11313;50.116;8.424;2023-10-31T10:05:05;25.30;54.70
22290;DHT22;11313;50.116;8.424;2023-10-31T10:07:33;25.30;54.70
22290;DHT22;11313;50.116;8.424;2023-10-31T10:09:59;25.30;54.70
22290;DHT22;11313;50.116;8.424;2023-10-31T10:12:26;25.30;54.70
22290;DHT22;11313;50.116;8.424;2023-10-31T10:14:52;25.30;54.70
22290;DHT22;11313;50.116;8.424;2023-10-31T10:17:21;25.30;54.70
22290;DHT22;11313;50.116;8.424;2023-10-31T10:19:47;25.30;54.70
22290;DHT22;11313;50.116;8.424;2023-10-31T10:22:12;25.30;54.70
22290;DHT22;11313;50.116;8.424;2023-10-31T10:24:40;25.30;54.60
22290;DHT22;11313;50.116;8.424;2023-10-31T10:27:07;25.40;54.70
22290;DHT22;11313;50.116;8.424;2023-10-31T10:29:33;25.30;54.60
22290;DHT22;11313;50.116;8.424;2023-10-31T10:31:59;25.30;54.60
22290;DHT22;11313;50.116;8.424;2023-10-31T10:34:24;25.30;54.60
22290;DHT22;11313;50.116;8.424;2023-10-31T10:36:50;25.30;54.60
22290;DHT22;11313;50.116;8.424;2023-10-31T10:39:20;25.30;54.60
22290;DHT22;11313;50.116;8.424;2023-10-31T10:41:54;25.30;54.60
22290;DHT22;11313;50.116;8.424;2023-10-31T10:44:31;25.40;54.70
22290;DHT22;11313;50.116;8.424;2023-10-31T10:46:58;25.30;54.60
22290;DHT22;11313;50.116;8.424;2023-10-31T10:49:27;25.30;54.60
22290;DHT22;11313;50.116;8.424;2023-10-31T10:52:07;25.40;54.70
22290;DHT22;11313;50.116;8.424;2023-10-31T10:54:44;25.30;54.60
22290;DHT22;11313;50.116;8.424;2023-10-31T10:59:48;25.30;54.60
22290;DHT22;11313;50.116;8.424;2023-10-31T11:02:18;25.30;54.60
22290;DHT22;11313;50.116;8.424;2023-10-31T11:04:44;25.30;54.60
22290;DHT22;11313;50.116;8.424;2023-10-31T11:07:10;25.40;54.60
22290;DHT22;11313;50.116;8.424;2023-10-31T11:09:36;25.40;54.60
22290;DHT22;11313;50.116;8.424;2023-10-31T11:12:03;25.40;54.60
22290;DHT22;11313;50.116;8.424;2023-10-31T11:14:30;25.30;54.50
22290;DHT22;11313;50.116;8.424;2023-10-31T11:17:01;25.40;54.60
22290;DHT22;11313;50.116;8.424;2023-10-31T11:19:30;25.40;54.60
22290;DHT22;11313;50.116;8.424;2023-10-31T11:21:58;25.40;54.50
22290;DHT22;11313;50.116;8.424;2023-10-31T11:24:47;25.40;54.50
22290;DHT22;11313;50.116;8.424;2023-10-31T11:27:12;25.40;54.60
22290;DHT22;11313;50.116;8.424;2023-10-31T11:29:37;25.40;54.50
22290;DHT22;11313;50.116;8.424;2023-10-31T11:32:03;25.40;54.50
22290;DHT22;11313;50.116;8.424;2023-10-31T11:34:32;25.40;54.50
22290;DHT22;11313;50.116;8.424;2023-10-31T11:37:18;25.40;54.50
22290;DHT22;11313;50.116;8.424;2023-10-31T11:40:14;25.40;54.40
22290;DHT22;11313;50.116;8.424;2023-10-31T11:42:46;25.40;54.40
22290;DHT22;11313;50.116;8.424;2023-10-31T11:45:12;25.40;54.40
22290;DHT22;11313;50.116;8.424;2023-10-31T11:47:48;25.40;54.40
22290;DHT22;11313;50.116;8.424;2023-10-31T11:50:15;25.40;54.40
22290;DHT22;11313;50.116;8.424;2023-10-31T11:52:40;25.40;54.40
22290;DHT22;11313;50.116;8.424;2023-10-31T11:55:13;25.50;54.50
22290;DHT22;11313;50.116;8.424;2023-10-31T11:57:39;25.50;54.50
22290;DHT22;11313;50.116;8.424;2023-10-31T12:00:05;25.50;54.40
22290;DHT22;11313;50.116;8.424;2023-10-31T12:02:32;25.50;54.40
22290;DHT22;11313;50.116;8.424;2023-10-31T12:05:12;25.50;54.50
22290;DHT22;11313;50.116;8.424;2023-10-31T12:07:45;25.50;54.40
22290;DHT22;11313;50.116;8.424;2023-10-31T12:10:11;25.50;54.40
22290;DHT22;11313;50.116;8.424;2023-10-31T12:12:37;25.50;54.40
22290;DHT22;11313;50.116;8.424;2023-10-31T12:15:06;25.50;54.40
22290;DHT22;11313;50.116;8.424;2023-10-31T12:17:33;25.50;54.40
22290;DHT22;11313;50.116;8.424;2023-10-31T12:20:06;25.50;54.40
22290;DHT22;11313;50.116;8.424;2023-10-31T12:22:32;25.50;54.40
22290;DHT22;11313;50.116;8.424;2023-10-31T12:25:07;25.50;54.40
22290;DHT22;11313;50.116;8.424;2023-10-31T12:27:49;25.50;54.40
22290;DHT22;11313;50.116;8.424;2023-10-31T12:30:17;25.50;54.40
22290;DHT22;11313;50.116;8.424;2023-10-31T12:32:44;25.50;54.40
22290;DHT22;11313;50.116;8.424;2023-10-31T12:35:12;25.50;54.30
22290;DHT22;11313;50.116;8.424;2023-10-31T12:37:49;25.50;54.30
22290;DHT22;11313;50.116;8.424;2023-10-31T12:40:18;25.60;54.40
22290;DHT22;11313;50.116;8.424;2023-10-31T12:42:45;25.50;54.40
22290;DHT22;11313;50.116;8.424;2023-10-31T12:45:14;25.50;54.30
22290;DHT22;11313;50.116;8.424;2023-10-31T12:47:40;25.50;54.30
22290;DHT22;11313;50.116;8.424;2023-10-31T12:50:15;25.50;54.30
22290;DHT22;11313;50.116;8.424;2023-10-31T12:52:52;25.50;54.30
22290;DHT22;11313;50.116;8.424;2023-10-31T12:55:22;25.50;54.30
22290;DHT22;11313;50.116;8.424;2023-10-31T12:57:49;25.50;54.30
22290;DHT22;11313;50.116;8.424;2023-10-31T13:00:18;25.50;54.40
22290;DHT22;11313;50.116;8.424;2023-10-31T13:02:50;25.50;55.00
22290;DHT22;11313;50.116;8.424;2023-10-31T13:05:16;25.60;54.40
22290;DHT22;11313;50.116;8.424;2023-10-31T13:07:49;25.50;54.30
22290;DHT22;11313;50.116;8.424;2023-10-31T13:10:16;25.50;54.30
22290;DHT22;11313;50.116;8.424;2023-10-31T13:12:46;25.50;54.40
22290;DHT22;11313;50.116;8.424;2023-10-31T13:15:18;25.60;54.40
22290;DHT22;11313;50.116;8.424;2023-10-31T13:17:44;25.50;54.30
22290;DHT22;11313;50.116;8.424;2023-10-31T13:20:11;25.50;54.30
22290;DHT22;11313;50.116;8.424;2023-10-31T13:22:41;25.60;54.40
22290;DHT22;11313;50.116;8.424;2023-10-31T13:25:11;25.60;54.40
22290;DHT22;11313;50.116;8.424;2023-10-31T13:27:38;25.50;54.40
22290;DHT22;11313;50.116;8.424;2023-10-31T13:30:05;25.50;54.40
22290;DHT22;11313;50.116;8.424;2023-10-31T13:32:31;25.50;54.40
22290;DHT22;11313;50.116;8.424;2023-10-31T13:34:56;25.50;54.40
22290;DHT22;11313;50.116;8.424;2023-10-31T13:37:22;25.50;54.40
22290;DHT22;11313;50.116;8.424;2023-10-31T13:39:48;25.50;54.40
22290;DHT22;11313;50.116;8.424;2023-10-31T13:42:13;25.50;54.40
22290;DHT22;11313;50.116;8.424;2023-10-31T13:44:42;25.50;54.30
22290;DHT22;11313;50.116;8.424;2023-10-31T13:47:08;25.60;54.40
22290;DHT22;11313;50.116;8.424;2023-10-31T13:49:34;25.50;54.40
22290;DHT22;11313;50.116;8.424;2023-10-31T13:52:00;25.50;54.40
22290;DHT22;11313;50.116;8.424;2023-10-31T13:54:25;25.50;54.50
22290;DHT22;11313;50.116;8.424;2023-10-31T13:56:51;25.50;54.40
22290;DHT22;11313;50.116;8.424;2023-10-31T13:59:17;25.50;54.40
22290;DHT22;11313;50.116;8.424;2023-10-31T14:01:44;25.50;54.40
22290;DHT22;11313;50.116;8.424;2023-10-31T14:04:11;25.50;54.40
22290;DHT22;11313;50.116;8.424;2023-10-31T14:06:40;25.50;54.40
22290;DHT22;11313;50.116;8.424;2023-10-31T14:09:07;25.50;54.40
22290;DHT22;11313;50.116;8.424;2023-10-31T14:11:33;25.50;54.50
22290;DHT22;11313;50.116;8.424;2023-10-31T14:13:59;25.50;54.40
22290;DHT22;11313;50.116;8.424;2023-10-31T14:16:29;25.50;54.50
22290;DHT22;11313;50.116;8.424;2023-10-31T14:18:55;25.50;54.40
22290;DHT22;11313;50.116;8.424;2023-10-31T14:21:21;25.50;54.50
22290;DHT22;11313;50.116;8.424;2023-10-31T14:23:46;25.50;54.50
22290;DHT22;11313;50.116;8.424;2023-10-31T14:26:22;25.50;54.50
22290;DHT22;11313;50.116;8.424;2023-10-31T14:28:53;25.50;54.50
22290;DHT22;11313;50.116;8.424;2023-10-31T14:31:19;25.50;54.50
22290;DHT22;11313;50.116;8.424;2023-10-31T14:33:46;25.50;54.50
22290;DHT22;11313;50.116;8.424;2023-10-31T14:36:11;25.50;54.50
22290;DHT22;11313;50.116;8.424;2023-10-31T14:38:39;25.50;54.50
22290;DHT22;11313;50.116;8.424;2023-10-31T14:41:05;25.50;54.50
22290;DHT22;11313;50.116;8.424;2023-10-31T14:43:31;25.50;54.50
22290;DHT22;11313;50.116;8.424;2023-10-31T14:45:57;25.50;54.50
22290;DHT22;11313;50.116;8.424;2023-10-31T14:48:23;25.50;54.50
22290;DHT22;11313;50.116;8.424;2023-10-31T14:50:49;25.50;54.50
22290;DHT22;11313;50.116;8.424;2023-10-31T14:53:18;25.50;54.50
22290;DHT22;11313;50.116;8.424;2023-10-31T14:55:44;25.50;54.50
22290;DHT22;11313;50.116;8.424;2023-10-31T14:58:10;25.50;54.50
22290;DHT22;11313;50.116;8.424;2023-10-31T15:00:35;25.50;54.50
22290;DHT22;11313;50.116;8.424;2023-10-31T15:03:01;25.50;54.50
22290;DHT22;11313;50.116;8.424;2023-10-31T15:05:27;25.50;54.40
22290;DHT22;11313;50.116;8.424;2023-10-31T15:07:52;25.40;54.40
22290;DHT22;11313;50.116;8.424;2023-10-31T15:10:19;25.40;54.50
22290;DHT22;11313;50.116;8.424;2023-10-31T15:12:46;25.50;54.60
22290;DHT22;11313;50.116;8.424;2023-10-31T15:15:14;25.50;54.60
22290;DHT22;11313;50.116;8.424;2023-10-31T15:17:39;25.40;54.50
22290;DHT22;11313;50.116;8.424;2023-10-31T15:20:05;25.40;54.50
22290;DHT22;11313;50.116;8.424;2023-10-31T15:22:32;25.40;54.50
22290;DHT22;11313;50.116;8.424;2023-10-31T15:24:57;25.40;54.50
22290;DHT22;11313;50.116;8.424;2023-10-31T15:27:23;25.40;54.50
22290;DHT22;11313;50.116;8.424;2023-10-31T15:29:48;25.40;54.50